首页
METAR-TAF:

METAR-TAF

机场 :

多哈国际机场

多哈, 卡塔尔

纬度: 25-15-40N, 经度: 051-33-54E, 海拔: 11米

当前天气观测

该预报发布于35分钟前的09:30 UTC
风速12节,风向南转南东,在东转东南之间变化
温度 22°C
湿度 57%
气压 1017 hPa
能见度10公里或以上
少量云层高于3000英尺

METAR: OTBD 180930Z 15012KT 120V190 9999 FEW030 22/13 Q1017 NOSIG

时间: 13:05 (10:05 UTC)

预报

该预报发布于3小时和30分钟前的06:35 UTC
预报有效从18日的 06点(UTC)到 19日的 12点(UTC)
风速9节,风向南转南东
能见度10公里或以上
1500米以下无云,无积雨云
几率 30% :
短暂存在
从 19日的 00点(UTC)到 19日的 06点(UTC)
能見度: 4000

TAF: OTBD 180635Z 1806/1912 15009KT CAVOK PROB30 TEMPO 1900/1906 4000 HZ

超过4000个机场的气象观测和天气预报(METAR&TAF报告)。

可查询的气象台以黄色和红色小点在地图上表示。

将鼠标移到小点上方,可查看气象台名称。

然后点击查看天气观测和预报。

如需切换地图:点击带黑十字的绿色按钮放大地图;点击带横线的绿色按钮缩小地图;或者点击绿色箭头查看邻近地区的地图。


METAR-TAF: